Time;durP1;ratioP1;P1;durP2;ratioP2;P2;SDS_P1;SDS_P2;PMS_P1;PMS_P2;Temp;Humidity;BMP_temperature;BMP_pressure;BME280_temperature;BME280_humidity;BME280_pressure;Samples;Min_cycle;Max_cycle;Signal;HPM_P1;HPM_P2
2021/04/19 05:14:09;;;;;;;15.73;10.60;;;6.80;79.00;;;;;;5161750;27;27338;-59
2021/04/19 05:31:48;;;;;;;15.38;10.98;;;6.90;79.40;;;;;;5046602;27;2656933;-60
2021/04/19 06:07:33;;;;;;;17.55;11.15;;;7.00;80.00;;;;;;5120559;27;27415;-62
2021/04/19 06:37:09;;;;;;;19.55;12.48;;;7.10;79.70;;;;;;5161676;27;27714;-60
2021/04/19 06:59:42;;;;;;;16.30;11.45;;;7.10;79.80;;;;;;5140892;27;27714;-58
2021/04/19 07:12:09;;;;;;;22.15;13.68;;;7.20;80.40;;;;;;5120737;27;27398;-60
2021/04/19 07:20:57;;;;;;;20.50;13.52;;;7.20;80.60;;;;;;5141207;27;27377;-59
2021/04/19 07:24:18;;;;;;;17.63;12.55;;;7.20;81.90;;;;;;5142292;27;27411;-58
2021/04/19 07:27:12;;;;;;;20.70;13.75;;;7.30;81.20;;;;;;5142263;27;27376;-58
2021/04/19 07:55:09;;;;;;;24.15;15.15;;;7.40;80.20;;;;;;5140974;27;27663;-60
2021/04/19 07:58:22;;;;;;;20.95;14.23;;;7.50;81.20;;;;;;5118707;27;27325;-61
2021/04/19 08:01:13;;;;;;;19.60;14.25;;;7.50;81.10;;;;;;5121288;27;27408;-61
2021/04/19 08:04:18;;;;;;;24.20;15.82;;;7.50;80.80;;;;;;5122001;27;27424;-59
2021/04/19 08:07:16;;;;;;;25.88;15.82;;;7.50;81.10;;;;;;5121538;27;27432;-59
2021/04/19 08:10:07;;;;;;;26.02;15.57;;;7.50;81.10;;;;;;5107626;27;27626;-58
2021/04/19 08:13:17;;;;;;;25.17;16.42;;;7.60;81.50;;;;;;5121507;27;27332;-60
2021/04/19 08:16:23;;;;;;;22.23;15.80;;;7.60;81.90;;;;;;5121256;27;27441;-60
2021/04/19 08:19:50;;;;;;;24.05;15.40;;;7.70;81.60;;;;;;5121667;27;27942;-59
2021/04/19 08:23:04;;;;;;;25.92;16.08;;;7.80;82.00;;;;;;5102977;27;27427;-60
2021/04/19 08:26:18;;;;;;;24.67;15.40;;;7.80;82.10;;;;;;5120901;27;27426;-60
2021/04/19 08:29:36;;;;;;;22.92;16.25;;;7.90;82.20;;;;;;5121518;27;27336;-60
2021/04/19 08:32:48;;;;;;;27.73;17.35;;;7.90;82.00;;;;;;5121386;27;27376;-60
2021/04/19 08:36:22;;;;;;;23.48;15.82;;;8.00;82.20;;;;;;5121007;27;27325;-60
2021/04/19 08:39:15;;;;;;;28.23;16.15;;;8.10;82.20;;;;;;5104297;27;27420;-60
2021/04/19 08:42:16;;;;;;;24.05;16.17;;;8.10;82.90;;;;;;5117782;27;27440;-60
2021/04/19 08:45:27;;;;;;;24.33;16.60;;;8.10;82.00;;;;;;5121241;27;27387;-60
2021/04/19 08:48:21;;;;;;;22.83;15.07;;;8.20;82.30;;;;;;5105357;27;27478;-60
2021/04/19 08:51:34;;;;;;;24.88;16.27;;;8.20;82.10;;;;;;5120715;27;27474;-60
2021/04/19 08:54:53;;;;;;;27.58;17.50;;;8.20;82.00;;;;;;5100189;27;27497;-60
2021/04/19 08:58:21;;;;;;;22.92;15.35;;;8.20;82.30;;;;;;5100155;28;27424;-60
2021/04/19 09:01:48;;;;;;;22.02;15.02;;;8.20;82.50;;;;;;5097261;28;27325;-60
2021/04/19 09:05:05;;;;;;;25.63;15.43;;;8.30;82.30;;;;;;5095212;28;27340;-60
2021/04/19 09:08:02;;;;;;;25.08;16.05;;;8.40;82.60;;;;;;5086555;28;27418;-60
2021/04/19 09:11:06;;;;;;;23.40;15.93;;;8.40;82.70;;;;;;5086852;28;27457;-60
2021/04/19 09:14:10;;;;;;;29.63;16.13;;;8.40;82.60;;;;;;5086554;28;27526;-60
2021/04/19 09:17:08;;;;;;;22.45;15.95;;;8.50;82.70;;;;;;5073891;28;27448;-60
2021/04/19 09:20:24;;;;;;;24.05;15.52;;;8.50;82.70;;;;;;5083425;28;27342;-60
2021/04/19 09:23:41;;;;;;;24.95;16.23;;;8.60;82.70;;;;;;5068257;28;27946;-60
2021/04/19 09:27:16;;;;;;;26.42;16.52;;;8.60;83.00;;;;;;5071482;28;27345;-60
2021/04/19 09:30:34;;;;;;;25.50;17.10;;;8.70;82.70;;;;;;5083042;28;27390;-60
2021/04/19 09:34:17;;;;;;;23.48;15.32;;;8.70;82.50;;;;;;5077635;28;27439;-60
2021/04/19 09:37:03;;;;;;;25.67;15.68;;;8.70;82.60;;;;;;5085588;28;27348;-60
2021/04/19 09:40:33;;;;;;;26.30;16.77;;;8.70;82.60;;;;;;5071057;28;27448;-60
2021/04/19 09:43:54;;;;;;;25.08;16.15;;;8.80;82.30;;;;;;5086190;28;27436;-60
2021/04/19 09:46:46;;;;;;;26.23;17.17;;;8.80;82.30;;;;;;5085455;28;27492;-60
2021/04/19 09:50:02;;;;;;;26.08;16.15;;;8.80;82.20;;;;;;5057090;28;27365;-60
2021/04/19 09:53:41;;;;;;;25.08;15.73;;;8.80;82.30;;;;;;5083402;28;27392;-60
2021/04/19 09:56:53;;;;;;;24.77;16.75;;;8.80;82.50;;;;;;5070905;28;27454;-61
2021/04/19 09:59:52;;;;;;;24.13;15.50;;;8.80;83.30;;;;;;5082468;28;27487;-60
2021/04/19 10:03:11;;;;;;;30.45;16.50;;;8.90;82.70;;;;;;5085654;28;27979;-60
2021/04/19 10:06:23;;;;;;;25.38;15.60;;;8.80;82.50;;;;;;5084384;28;27459;-60
2021/04/19 10:09:36;;;;;;;24.60;17.15;;;8.90;82.50;;;;;;5084625;28;27433;-60
2021/04/19 10:12:47;;;;;;;32.97;18.83;;;8.90;82.60;;;;;;5085481;28;27475;-60
2021/04/19 10:15:49;;;;;;;26.35;17.17;;;8.90;83.50;;;;;;5084701;28;27330;-60
2021/04/19 10:18:56;;;;;;;24.48;17.45;;;9.00;82.90;;;;;;5070335;28;27443;-61
2021/04/19 10:22:05;;;;;;;26.13;16.50;;;9.00;83.60;;;;;;5085490;28;27393;-60
2021/04/19 10:24:57;;;;;;;27.98;17.27;;;9.00;83.80;;;;;;5085722;28;27460;-60
2021/04/19 10:27:47;;;;;;;29.48;18.17;;;9.10;84.00;;;;;;5085254;28;27341;-60
2021/04/19 10:30:41;;;;;;;28.45;17.58;;;9.10;84.00;;;;;;5070678;28;27480;-60
2021/04/19 10:33:51;;;;;;;27.90;18.90;;;9.20;84.10;;;;;;5085453;28;27416;-61
2021/04/19 10:36:57;;;;;;;23.63;16.63;;;9.20;84.00;;;;;;5085245;28;27357;-60
2021/04/19 10:40:10;;;;;;;31.88;19.50;;;9.30;84.00;;;;;;5084992;28;27869;-61
2021/04/19 10:43:17;;;;;;;26.65;17.52;;;9.30;84.30;;;;;;5066957;28;27526;-65
2021/04/19 10:46:23;;;;;;;28.30;18.52;;;9.30;84.90;;;;;;5069904;28;27377;-66
2021/04/19 10:49:23;;;;;;;28.95;17.92;;;9.40;85.00;;;;;;5084955;28;27389;-65
2021/04/19 10:52:50;;;;;;;27.75;18.13;;;9.40;85.40;;;;;;5071850;28;27391;-66
2021/04/19 10:55:58;;;;;;;28.45;17.73;;;9.50;84.90;;;;;;5084173;28;27329;-66
2021/04/19 10:59:07;;;;;;;24.83;17.75;;;9.50;84.50;;;;;;5084302;28;27514;-64
2021/04/19 11:02:01;;;;;;;30.50;17.65;;;9.50;84.50;;;;;;5084677;28;27412;-68
2021/04/19 11:04:58;;;;;;;24.35;16.42;;;9.60;84.40;;;;;;5084684;28;27423;-68
2021/04/19 11:08:25;;;;;;;28.67;19.42;;;9.60;84.40;;;;;;5084086;28;27474;-69
2021/04/19 11:11:42;;;;;;;25.73;16.77;;;9.60;84.50;;;;;;5081734;28;27313;-63
2021/04/19 11:14:54;;;;;;;22.98;16.10;;;9.70;84.70;;;;;;5084443;28;26963;-69
2021/04/19 11:18:01;;;;;;;25.08;15.32;;;9.70;84.60;;;;;;5084499;28;27947;-69
2021/04/19 11:20:58;;;;;;;24.95;16.63;;;9.80;84.80;;;;;;5083925;28;27415;-68
2021/04/19 11:24:08;;;;;;;27.58;16.35;;;9.80;84.50;;;;;;5084706;28;27508;-69
2021/04/19 11:27:04;;;;;;;27.88;17.38;;;9.80;84.50;;;;;;5083873;28;27362;-69
2021/04/19 11:30:19;;;;;;;24.95;14.88;;;9.90;84.30;;;;;;5084284;28;27399;-68
2021/04/19 11:33:46;;;;;;;31.35;17.88;;;9.90;84.20;;;;;;5084230;28;27418;-69
2021/04/19 11:37:08;;;;;;;24.17;16.95;;;9.90;84.00;;;;;;5084131;28;27497;-68
2021/04/19 11:40:26;;;;;;;26.52;16.67;;;9.90;83.80;;;;;;5084071;28;27462;-69
2021/04/19 11:43:29;;;;;;;25.52;16.23;;;9.90;83.80;;;;;;5084487;28;27382;-69
2021/04/19 11:46:44;;;;;;;23.90;16.15;;;9.90;83.60;;;;;;5084537;28;27344;-69
2021/04/19 11:50:12;;;;;;;26.80;16.67;;;9.90;83.70;;;;;;5083847;28;27401;-69
2021/04/19 11:53:23;;;;;;;23.98;15.48;;;10.00;83.60;;;;;;5085535;28;27418;-69
2021/04/19 11:56:54;;;;;;;21.27;14.18;;;10.00;83.40;;;;;;5083466;28;27451;-69
2021/04/19 12:00:21;;;;;;;23.63;15.70;;;10.00;83.50;;;;;;5080629;28;27490;-69
2021/04/19 12:03:55;;;;;;;33.20;20.88;;;10.10;83.50;;;;;;5083673;28;27623;-68
2021/04/19 12:07:36;;;;;;;27.38;17.95;;;10.10;83.40;;;;;;5065783;28;27434;-68
2021/04/19 12:11:09;;;;;;;23.17;17.30;;;10.10;83.40;;;;;;5083989;28;27830;-69
2021/04/19 12:14:41;;;;;;;25.73;17.40;;;10.10;83.00;;;;;;5083713;28;27492;-69
2021/04/19 12:17:57;;;;;;;24.70;16.65;;;10.10;82.80;;;;;;5065505;28;27353;-68
2021/04/19 12:21:24;;;;;;;25.33;17.15;;;10.10;83.00;;;;;;5083600;28;27476;-69
2021/04/19 12:24:58;;;;;;;21.73;15.50;;;10.10;83.00;;;;;;5083294;28;27437;-69
2021/04/19 12:28:31;;;;;;;21.70;15.90;;;10.10;83.00;;;;;;5083609;28;27345;-68
2021/04/19 12:32:04;;;;;;;22.58;14.85;;;10.10;82.90;;;;;;5082987;28;27313;-69
2021/04/19 12:35:17;;;;;;;23.02;15.07;;;10.10;83.10;;;;;;5083717;28;27408;-69
2021/04/19 12:38:25;;;;;;;21.50;14.48;;;10.10;83.50;;;;;;5051251;28;27850;-65
2021/04/19 12:41:31;;;;;;;19.48;12.75;;;10.20;83.50;;;;;;5085841;28;27443;-69
2021/04/19 12:44:36;;;;;;;19.15;13.63;;;10.20;83.30;;;;;;5087346;28;26923;-69
2021/04/19 12:48:03;;;;;;;18.88;12.88;;;10.30;83.30;;;;;;5086880;28;27551;-69
2021/04/19 12:51:09;;;;;;;17.55;12.85;;;10.30;83.40;;;;;;5086052;28;27341;-68
2021/04/19 12:54:18;;;;;;;22.52;14.38;;;10.30;83.10;;;;;;5087953;28;27655;-64
2021/04/19 12:57:15;;;;;;;20.90;14.02;;;10.30;83.30;;;;;;5068520;28;27383;-69
2021/04/19 13:00:21;;;;;;;18.85;13.50;;;10.40;83.30;;;;;;5087139;28;27373;-69
2021/04/19 13:03:12;;;;;;;16.95;12.95;;;10.30;83.30;;;;;;5085685;28;27413;-69
2021/04/19 13:06:04;;;;;;;21.55;14.23;;;10.40;83.20;;;;;;5086660;28;27377;-69
2021/04/19 13:08:57;;;;;;;21.35;14.27;;;10.40;83.40;;;;;;5086619;28;27361;-69
2021/04/19 13:12:27;;;;;;;18.73;13.20;;;10.40;83.10;;;;;;5068177;28;27398;-69
2021/04/19 13:15:14;;;;;;;19.23;13.73;;;10.40;83.00;;;;;;5086196;28;27340;-69
2021/04/19 13:17:58;;;;;;;21.08;14.90;;;10.40;83.50;;;;;;5086512;28;27486;-65
2021/04/19 13:20:43;;;;;;;18.30;14.10;;;10.40;83.60;;;;;;5086680;28;27364;-65
2021/04/19 13:23:48;;;;;;;21.92;14.15;;;10.30;83.20;;;;;;5086808;28;27318;-63
2021/04/19 13:26:46;;;;;;;18.60;13.75;;;10.30;83.50;;;;;;5085726;28;27498;-71
2021/04/19 13:30:13;;;;;;;25.17;14.65;;;10.30;83.80;;;;;;5083151;28;27487;-70
2021/04/19 13:33:26;;;;;;;21.75;14.10;;;10.30;84.00;;;;;;5085179;28;27414;-67
2021/04/19 13:36:22;;;;;;;21.08;14.98;;;10.20;83.70;;;;;;5083299;28;27433;-68
2021/04/19 13:39:34;;;;;;;22.40;15.23;;;10.20;83.70;;;;;;5083193;28;27397;-69
2021/04/19 13:42:37;;;;;;;20.05;14.85;;;10.20;83.80;;;;;;5085184;28;27373;-67
2021/04/19 13:45:51;;;;;;;25.60;16.70;;;10.10;83.70;;;;;;5086254;28;27356;-70
2021/04/19 13:49:22;;;;;;;19.90;15.05;;;10.10;84.00;;;;;;5085745;28;27464;-69
2021/04/19 13:52:28;;;;;;;20.95;15.90;;;10.10;84.00;;;;;;5086211;28;27428;-69
2021/04/19 13:55:41;;;;;;;24.13;15.77;;;10.10;83.90;;;;;;5085059;28;27471;-69
2021/04/19 13:58:54;;;;;;;26.25;16.15;;;10.10;83.70;;;;;;5067698;28;27466;-69
2021/04/19 14:02:18;;;;;;;27.13;18.10;;;10.10;83.70;;;;;;5065962;28;27467;-70
2021/04/19 14:05:22;;;;;;;23.45;16.95;;;10.10;83.70;;;;;;5065811;28;27524;-69
2021/04/19 14:08:15;;;;;;;25.70;16.95;;;10.10;84.00;;;;;;5065397;28;27493;-68
2021/04/19 14:11:28;;;;;;;25.05;17.17;;;10.10;84.40;;;;;;5037613;28;27460;-70
2021/04/19 14:14:26;;;;;;;25.20;18.38;;;10.10;84.60;;;;;;5064709;28;27338;-67
2021/04/19 14:17:23;;;;;;;25.23;18.45;;;10.20;84.70;;;;;;5065785;28;27345;-69
2021/04/19 14:20:22;;;;;;;26.33;17.77;;;10.20;84.70;;;;;;5065334;28;27396;-69
2021/04/19 14:23:21;;;;;;;24.98;18.20;;;10.30;84.60;;;;;;5062425;28;27397;-69
2021/04/19 14:26:17;;;;;;;26.50;16.38;;;10.40;84.30;;;;;;5065440;28;27342;-69
2021/04/19 14:29:08;;;;;;;26.83;18.20;;;10.50;84.40;;;;;;5046969;28;27472;-67
2021/04/19 14:32:02;;;;;;;27.23;18.10;;;10.50;84.20;;;;;;5065032;28;27393;-68
2021/04/19 14:35:09;;;;;;;26.88;18.48;;;10.70;84.50;;;;;;5064838;28;27430;-69
2021/04/19 14:38:16;;;;;;;26.85;18.60;;;10.80;84.60;;;;;;5064168;28;27479;-69
2021/04/19 14:41:20;;;;;;;25.92;18.23;;;10.80;84.60;;;;;;5063889;28;27396;-67
2021/04/19 14:44:18;;;;;;;29.95;17.83;;;10.80;84.50;;;;;;5024730;28;27362;-69
2021/04/19 14:47:27;;;;;;;29.23;19.15;;;10.90;84.60;;;;;;5065359;28;27390;-68
2021/04/19 14:50:33;;;;;;;26.40;17.75;;;10.90;85.30;;;;;;5063621;28;27476;-68
2021/04/19 14:53:30;;;;;;;25.15;17.67;;;10.90;84.70;;;;;;5064760;28;27458;-67
2021/04/19 14:56:45;;;;;;;26.58;18.65;;;10.90;84.70;;;;;;5064710;28;27444;-68
2021/04/19 14:59:50;;;;;;;24.98;17.08;;;10.90;84.60;;;;;;5063701;28;27420;-67
2021/04/19 15:02:59;;;;;;;31.48;18.77;;;10.90;84.60;;;;;;5063500;28;27397;-68
2021/04/19 15:06:11;;;;;;;23.45;17.73;;;10.90;84.70;;;;;;5064287;28;27927;-69
2021/04/19 15:09:18;;;;;;;26.77;18.60;;;10.90;84.70;;;;;;5064908;28;27369;-69
2021/04/19 15:12:24;;;;;;;26.83;18.48;;;10.90;84.70;;;;;;5064532;28;27341;-68
2021/04/19 15:15:21;;;;;;;28.52;18.08;;;10.80;84.50;;;;;;5064649;28;27495;-69
2021/04/19 15:18:30;;;;;;;24.50;17.60;;;10.80;84.20;;;;;;5046503;28;27451;-69
2021/04/19 15:21:21;;;;;;;22.45;16.95;;;10.80;84.90;;;;;;5064278;28;27339;-68
2021/04/19 15:24:23;;;;;;;28.38;18.42;;;10.80;84.30;;;;;;5064720;28;27501;-67
2021/04/19 15:27:35;;;;;;;28.30;18.05;;;10.80;84.20;;;;;;5064237;28;27349;-69
2021/04/19 15:30:42;;;;;;;24.90;16.25;;;10.80;84.30;;;;;;5062905;28;27866;-68
2021/04/19 15:33:39;;;;;;;28.10;18.33;;;10.90;84.60;;;;;;5047867;28;27412;-69
2021/04/19 15:36:25;;;;;;;26.90;19.35;;;10.90;84.70;;;;;;5064508;28;27385;-69
2021/04/19 15:39:23;;;;;;;29.50;18.67;;;10.90;84.60;;;;;;5046376;28;27413;-69
2021/04/19 15:42:40;;;;;;;27.70;17.55;;;11.00;84.70;;;;;;5064159;28;27499;-69
2021/04/19 15:45:46;;;;;;;27.13;18.55;;;11.00;84.90;;;;;;5063514;28;27377;-69
2021/04/19 15:48:39;;;;;;;27.20;18.05;;;11.00;85.20;;;;;;5064338;28;27386;-69
2021/04/19 15:51:37;;;;;;;25.83;17.80;;;11.10;85.30;;;;;;5064227;28;27317;-69
2021/04/19 15:54:35;;;;;;;28.25;17.88;;;11.10;85.40;;;;;;5063285;28;27393;-69
2021/04/19 15:58:11;;;;;;;25.52;17.50;;;11.20;85.60;;;;;;5060564;28;27485;-67
2021/04/19 16:01:22;;;;;;;26.33;18.27;;;11.30;86.80;;;;;;5063546;28;27484;-69
2021/04/19 16:04:52;;;;;;;26.60;19.33;;;11.40;86.90;;;;;;5062595;28;27391;-69
2021/04/19 16:07:43;;;;;;;26.13;18.98;;;11.50;87.10;;;;;;5063875;28;27436;-68
2021/04/19 16:10:42;;;;;;;26.30;17.40;;;11.60;88.60;;;;;;5061651;28;27472;-69
2021/04/19 16:13:58;;;;;;;29.38;17.95;;;11.70;88.10;;;;;;5060723;28;27495;-68
2021/04/19 16:17:11;;;;;;;19.92;15.65;;;11.80;87.80;;;;;;5067100;28;27583;-69
2021/04/19 16:20:18;;;;;;;25.15;16.73;;;11.80;87.60;;;;;;5067439;28;27400;-69
2021/04/19 16:23:27;;;;;;;25.33;16.88;;;11.90;87.80;;;;;;5066906;28;27456;-69
2021/04/19 16:26:32;;;;;;;23.45;15.80;;;11.90;88.00;;;;;;5065835;28;27363;-69
2021/04/19 16:29:29;;;;;;;24.92;16.67;;;11.90;87.80;;;;;;5051842;28;26996;-67
2021/04/19 16:32:35;;;;;;;19.40;14.48;;;11.90;87.00;;;;;;5067402;28;27373;-68
2021/04/19 16:35:41;;;;;;;21.23;14.90;;;11.90;87.10;;;;;;5066716;28;27557;-68
2021/04/19 16:38:46;;;;;;;23.67;17.10;;;11.90;86.70;;;;;;5066825;28;27428;-68
2021/04/19 16:41:52;;;;;;;25.92;15.85;;;11.90;87.00;;;;;;5050826;28;27509;-68
2021/04/19 16:44:58;;;;;;;23.02;15.13;;;11.90;87.30;;;;;;5066742;28;27830;-69
2021/04/19 16:47:58;;;;;;;22.83;15.70;;;11.80;87.40;;;;;;5066603;28;27409;-69
2021/04/19 16:51:10;;;;;;;21.05;14.30;;;11.80;87.20;;;;;;5066747;28;27408;-61
2021/04/19 16:54:28;;;;;;;20.05;13.50;;;11.80;86.50;;;;;;5066301;28;27359;-69
2021/04/19 16:57:19;;;;;;;22.13;13.88;;;11.80;86.30;;;;;;5065434;28;27866;-69
2021/04/19 17:00:32;;;;;;;19.65;13.23;;;11.70;87.00;;;;;;5066610;28;27345;-68
2021/04/19 17:03:38;;;;;;;19.60;14.13;;;11.70;86.70;;;;;;5066715;28;27412;-68
2021/04/19 17:06:29;;;;;;;21.40;14.18;;;11.70;86.80;;;;;;5065940;28;27571;-69
2021/04/19 17:09:20;;;;;;;23.73;15.23;;;11.70;86.40;;;;;;5066795;28;27488;-69
2021/04/19 17:12:29;;;;;;;19.67;13.95;;;11.70;86.60;;;;;;5063244;28;27428;-69
2021/04/19 17:15:35;;;;;;;16.73;12.93;;;11.70;85.70;;;;;;5066702;28;27575;-69
2021/04/19 17:18:50;;;;;;;19.23;13.10;;;11.60;85.40;;;;;;5050720;28;27493;-68
2021/04/19 17:21:58;;;;;;;17.77;12.90;;;11.60;85.20;;;;;;5064901;28;27995;-61
2021/04/19 17:25:06;;;;;;;16.38;12.02;;;11.60;85.20;;;;;;5066197;28;27511;-69
2021/04/19 17:28:04;;;;;;;18.20;12.65;;;11.50;85.20;;;;;;5066185;28;27317;-69
2021/04/19 17:31:00;;;;;;;20.13;12.45;;;11.40;83.70;;;;;;5063072;28;27378;-69
2021/04/19 17:33:58;;;;;;;18.23;13.15;;;11.40;83.70;;;;;;5063014;28;27928;-68
2021/04/19 17:36:51;;;;;;;19.95;12.98;;;11.30;83.30;;;;;;5066405;28;27409;-69
2021/04/19 17:39:35;;;;;;;17.45;11.65;;;11.30;83.40;;;;;;5066313;28;27388;-63
2021/04/19 17:42:33;;;;;;;18.33;11.50;;;11.20;83.60;;;;;;5066171;28;27472;-64
2021/04/19 17:45:38;;;;;;;16.23;11.43;;;11.20;83.70;;;;;;5066050;28;27454;-62
2021/04/19 17:48:24;;;;;;;20.58;13.30;;;11.10;83.80;;;;;;5065694;28;27477;-68
2021/04/19 17:51:17;;;;;;;15.55;11.65;;;11.00;83.80;;;;;;5066207;28;27460;-68
2021/04/19 17:54:44;;;;;;;15.38;11.95;;;10.90;83.80;;;;;;5047105;28;27749;-61
2021/04/19 17:58:31;;;;;;;17.67;11.52;;;10.80;83.80;;;;;;5082271;28;27462;-69
2021/04/19 18:01:28;;;;;;;13.73;10.23;;;10.80;83.60;;;;;;5082938;28;27411;-61
2021/04/19 18:04:58;;;;;;;16.55;11.57;;;10.70;83.20;;;;;;5085404;28;27497;-68
2021/04/19 18:07:49;;;;;;;13.77;10.57;;;10.60;83.50;;;;;;5083922;28;27475;-68
2021/04/19 18:10:36;;;;;;;18.55;11.82;;;10.60;83.30;;;;;;5082351;28;27486;-62
2021/04/19 18:13:27;;;;;;;16.10;11.70;;;10.50;83.30;;;;;;5085671;28;27466;-69
2021/04/19 18:16:20;;;;;;;14.45;10.73;;;10.50;83.20;;;;;;5082485;28;27367;-68
2021/04/19 18:19:39;;;;;;;17.40;11.45;;;10.40;83.00;;;;;;5085612;28;27462;-69
2021/04/19 18:22:37;;;;;;;14.40;10.13;;;10.30;82.50;;;;;;5085588;28;27458;-69
2021/04/19 18:26:10;;;;;;;14.88;9.82;;;10.30;82.00;;;;;;5082313;28;27415;-68
2021/04/19 18:29:28;;;;;;;17.67;10.73;;;10.20;81.70;;;;;;5083587;28;27415;-68
2021/04/19 18:32:41;;;;;;;15.27;9.95;;;10.10;81.30;;;;;;5081590;28;27397;-68
2021/04/19 18:35:33;;;;;;;19.02;10.07;;;10.10;81.30;;;;;;5085122;28;27447;-68
2021/04/19 18:38:25;;;;;;;17.42;11.75;;;10.00;81.00;;;;;;5084575;28;27327;-68
2021/04/19 18:41:32;;;;;;;17.40;10.07;;;9.90;80.50;;;;;;5085521;28;27339;-66
2021/04/19 18:44:27;;;;;;;15.80;10.23;;;9.90;80.40;;;;;;5084246;28;27565;-67
2021/04/19 18:47:18;;;;;;;14.20;9.95;;;9.80;80.40;;;;;;5070858;28;27384;-68
2021/04/19 18:50:25;;;;;;;13.65;9.65;;;9.70;79.90;;;;;;5085448;28;27419;-67
2021/04/19 18:53:23;;;;;;;13.18;9.48;;;9.70;80.00;;;;;;5083422;28;27402;-67
2021/04/19 18:56:17;;;;;;;13.82;9.55;;;9.60;79.70;;;;;;5063913;28;27495;-67
2021/04/19 18:59:30;;;;;;;13.82;9.95;;;9.60;79.50;;;;;;5046784;28;27958;-67
2021/04/19 19:02:23;;;;;;;14.30;9.43;;;9.50;79.40;;;;;;5064992;28;27400;-68
2021/04/19 19:05:23;;;;;;;14.90;9.05;;;9.40;79.20;;;;;;5046500;28;27408;-68
2021/04/19 19:08:13;;;;;;;14.05;10.30;;;9.40;79.20;;;;;;5037137;28;27397;-68
2021/04/19 19:11:09;;;;;;;16.67;10.15;;;9.30;79.40;;;;;;5061207;28;27483;-67
2021/04/19 19:14:20;;;;;;;15.05;9.77;;;9.30;79.20;;;;;;5064355;28;27404;-67
2021/04/19 19:17:20;;;;;;;12.70;9.50;;;9.20;79.40;;;;;;5061231;28;27497;-67
2021/04/19 19:20:27;;;;;;;15.95;9.82;;;9.20;79.70;;;;;;5064352;28;27325;-67
2021/04/19 19:23:21;;;;;;;11.88;9.60;;;9.10;80.20;;;;;;5063789;28;27397;-67
2021/04/19 19:26:12;;;;;;;15.68;9.63;;;9.10;80.50;;;;;;5046242;28;27384;-66
2021/04/19 19:29:03;;;;;;;14.98;9.88;;;9.10;81.10;;;;;;5061256;28;27413;-67
2021/04/19 19:31:54;;;;;;;16.77;10.80;;;9.00;81.40;;;;;;5064250;28;27332;-68
2021/04/19 19:34:41;;;;;;;14.05;9.65;;;9.00;81.70;;;;;;5064104;28;27935;-67
2021/04/19 19:37:36;;;;;;;13.07;9.35;;;9.00;81.90;;;;;;5049062;28;27416;-67
2021/04/19 19:40:35;;;;;;;13.10;9.55;;;8.90;82.20;;;;;;5050202;28;27569;-68
2021/04/19 19:43:29;;;;;;;14.23;10.35;;;8.90;82.30;;;;;;5022589;28;27491;-68
2021/04/19 19:46:19;;;;;;;14.60;9.90;;;8.90;82.70;;;;;;5046158;28;27402;-67
2021/04/19 19:49:09;;;;;;;14.73;10.50;;;8.90;83.00;;;;;;5045446;28;27440;-66
2021/04/19 19:52:00;;;;;;;15.00;10.63;;;8.90;83.00;;;;;;5063586;28;27452;-67
2021/04/19 19:54:51;;;;;;;16.75;11.00;;;8.90;83.20;;;;;;5069906;28;27349;-67
2021/04/19 19:57:43;;;;;;;14.82;11.18;;;8.90;83.30;;;;;;5084162;28;27411;-67
2021/04/19 20:00:35;;;;;;;17.42;11.68;;;8.80;83.40;;;;;;5084185;28;27403;-67
2021/04/19 20:03:27;;;;;;;18.02;12.30;;;8.80;83.50;;;;;;5084234;28;27323;-67
2021/04/19 20:06:24;;;;;;;19.13;12.77;;;8.80;83.50;;;;;;5084060;28;27400;-66
2021/04/19 20:09:16;;;;;;;21.38;13.63;;;8.80;83.80;;;;;;5080731;28;27936;-65
2021/04/19 20:12:07;;;;;;;18.25;13.10;;;8.90;83.60;;;;;;5083940;28;27501;-67
2021/04/19 20:15:04;;;;;;;19.08;12.73;;;8.80;83.50;;;;;;5083962;28;27313;-67
2021/04/19 20:17:55;;;;;;;17.88;12.75;;;8.80;83.50;;;;;;5080460;28;27305;-67
2021/04/19 20:20:46;;;;;;;19.55;12.48;;;8.80;83.60;;;;;;5084087;28;27849;-67
2021/04/19 20:23:37;;;;;;;19.27;13.07;;;8.90;83.60;;;;;;5083966;28;27497;-67
2021/04/19 20:26:35;;;;;;;16.52;11.65;;;8.80;83.90;;;;;;5083791;28;27362;-67
2021/04/19 20:29:25;;;;;;;20.15;12.05;;;8.80;83.80;;;;;;5083959;28;27588;-67
2021/04/19 20:32:23;;;;;;;14.43;11.27;;;8.80;83.50;;;;;;5083618;28;27356;-67
2021/04/19 20:35:29;;;;;;;20.17;12.93;;;8.90;83.60;;;;;;5079273;28;27329;-66
2021/04/19 20:38:32;;;;;;;18.45;12.70;;;8.80;83.70;;;;;;5083019;28;27420;-67
2021/04/19 20:41:24;;;;;;;16.45;11.40;;;8.80;83.60;;;;;;5083847;28;27390;-67
2021/04/19 20:44:15;;;;;;;17.83;11.45;;;8.80;83.70;;;;;;5083681;28;27398;-67
2021/04/19 20:47:10;;;;;;;18.33;12.65;;;8.80;83.60;;;;;;5079776;28;27466;-67
2021/04/19 20:50:01;;;;;;;21.30;12.35;;;8.80;83.80;;;;;;5083792;28;27488;-66
2021/04/19 20:53:00;;;;;;;17.88;12.70;;;8.80;83.60;;;;;;5082749;28;27399;-66
2021/04/19 20:55:58;;;;;;;18.17;12.98;;;8.80;83.80;;;;;;5083776;28;27437;-66
2021/04/19 20:59:03;;;;;;;19.15;13.15;;;8.80;83.60;;;;;;5083686;28;27498;-66
2021/04/19 21:02:01;;;;;;;16.60;12.00;;;8.80;83.90;;;;;;5085657;28;27438;-66
2021/04/19 21:04:59;;;;;;;17.52;12.13;;;8.80;83.80;;;;;;5083831;28;27382;-67
2021/04/19 21:07:50;;;;;;;17.27;13.35;;;8.80;83.80;;;;;;5086823;28;27634;-66
2021/04/19 21:10:40;;;;;;;18.98;12.68;;;8.80;83.60;;;;;;5086851;28;27390;-67
2021/04/19 21:13:37;;;;;;;17.55;12.40;;;8.80;84.70;;;;;;5086416;28;27434;-66
2021/04/19 21:16:30;;;;;;;18.08;12.10;;;8.80;83.60;;;;;;5083308;28;27461;-66
2021/04/19 21:19:23;;;;;;;16.58;12.02;;;8.80;83.50;;;;;;5086715;28;27847;-66
2021/04/19 21:22:22;;;;;;;19.35;12.15;;;8.80;83.40;;;;;;5072135;28;27381;-66
2021/04/19 21:25:33;;;;;;;17.05;11.70;;;8.80;83.30;;;;;;5087348;28;27542;-66
2021/04/19 21:28:27;;;;;;;17.23;11.45;;;8.80;83.60;;;;;;5086632;28;27391;-66
2021/04/19 21:31:23;;;;;;;17.67;12.63;;;8.80;83.80;;;;;;5086611;28;27333;-66
2021/04/19 21:34:16;;;;;;;18.02;12.48;;;8.80;83.60;;;;;;5086510;28;27414;-67
2021/04/19 21:37:28;;;;;;;19.08;11.75;;;8.80;83.60;;;;;;5074370;28;27421;-66
2021/04/19 21:40:35;;;;;;;17.55;12.50;;;8.80;83.40;;;;;;5085897;28;27396;-66
2021/04/19 21:43:26;;;;;;;21.90;13.02;;;8.80;83.40;;;;;;5083158;28;27340;-66
2021/04/19 21:46:23;;;;;;;18.38;12.40;;;8.80;83.40;;;;;;5086398;28;27446;-65
2021/04/19 21:49:15;;;;;;;19.30;12.32;;;8.80;83.30;;;;;;5082851;28;27486;-66
2021/04/19 21:52:18;;;;;;;19.70;12.90;;;8.80;83.40;;;;;;5086014;28;27407;-67
2021/04/19 21:55:26;;;;;;;19.67;12.10;;;8.80;83.50;;;;;;5068538;28;27338;-66
2021/04/19 21:58:19;;;;;;;16.77;11.80;;;8.80;83.30;;;;;;5064572;28;27418;-67
2021/04/19 22:01:41;;;;;;;17.13;11.13;;;8.80;83.40;;;;;;5062447;28;27452;-65
2021/04/19 22:04:36;;;;;;;16.98;11.40;;;8.80;83.50;;;;;;5065104;28;27350;-65
2021/04/19 22:07:33;;;;;;;18.50;12.13;;;8.70;83.30;;;;;;5037410;28;27511;-67
2021/04/19 22:10:29;;;;;;;18.40;12.00;;;8.80;83.50;;;;;;5064806;28;27325;-65
2021/04/19 22:13:20;;;;;;;17.27;12.32;;;8.80;83.60;;;;;;5046298;28;27552;-66
2021/04/19 22:16:26;;;;;;;15.57;11.98;;;8.70;83.60;;;;;;5064896;28;27311;-65
2021/04/19 22:19:19;;;;;;;18.40;12.35;;;8.70;83.80;;;;;;5063313;28;27870;-66
2021/04/19 22:22:30;;;;;;;17.13;11.70;;;8.70;83.50;;;;;;5064775;28;27341;-65
2021/04/19 22:25:42;;;;;;;18.92;12.55;;;8.70;83.40;;;;;;5064807;28;26905;-61
2021/04/19 22:28:39;;;;;;;16.42;12.00;;;8.70;83.40;;;;;;5061189;28;27457;-65
2021/04/19 22:31:56;;;;;;;18.27;12.32;;;8.70;83.30;;;;;;5064637;28;27369;-65
2021/04/19 22:34:47;;;;;;;19.73;12.88;;;8.70;83.40;;;;;;5063610;28;27465;-66
2021/04/19 22:37:39;;;;;;;15.15;11.63;;;8.70;83.50;;;;;;5061311;28;27420;-66
2021/04/19 22:40:30;;;;;;;18.50;11.80;;;8.70;83.50;;;;;;5061581;28;27430;-66
2021/04/19 22:43:20;;;;;;;19.60;13.73;;;8.70;83.30;;;;;;5064626;28;27566;-67
2021/04/19 22:46:11;;;;;;;17.25;12.15;;;8.70;83.30;;;;;;5064801;28;27406;-67
2021/04/19 22:49:01;;;;;;;17.25;12.80;;;8.70;83.30;;;;;;5064455;28;27421;-66
2021/04/19 22:51:52;;;;;;;17.10;11.98;;;8.70;83.40;;;;;;5064487;28;27379;-67
2021/04/19 22:55:04;;;;;;;21.45;12.23;;;8.70;83.30;;;;;;5063663;28;27436;-66
2021/04/19 22:58:01;;;;;;;17.23;11.88;;;8.70;83.50;;;;;;5064059;28;27458;-67
2021/04/19 23:00:58;;;;;;;16.00;11.95;;;8.70;83.20;;;;;;5061379;28;27413;-66
2021/04/19 23:03:49;;;;;;;18.10;11.95;;;8.70;83.30;;;;;;5049425;28;27057;-66
2021/04/19 23:06:46;;;;;;;18.35;12.23;;;8.70;83.50;;;;;;5064463;28;27858;-66
2021/04/19 23:09:52;;;;;;;17.42;11.23;;;8.70;83.30;;;;;;5045765;28;27421;-59
